Time;durP1;ratioP1;P1;durP2;ratioP2;P2;SDS_P1;SDS_P2;PMS_P1;PMS_P2;Temp;Humidity;BMP_temperature;BMP_pressure;BME280_temperature;BME280_humidity;BME280_pressure;Samples;Min_cycle;Max_cycle;Signal;HPM_P1;HPM_P2
2022/07/23 00:02:25;;;;;;;2.90;0.45;;;16.20;99.90;;;;;;5028157;28;20082;-69
2022/07/23 00:04:51;;;;;;;0.70;0.30;;;16.20;99.90;;;;;;5028146;28;20120;-69
2022/07/23 00:07:16;;;;;;;2.67;0.65;;;16.20;99.90;;;;;;5027838;28;20040;-70
2022/07/23 00:09:42;;;;;;;2.35;0.65;;;16.10;99.90;;;;;;5028046;28;20033;-70
2022/07/23 00:12:07;;;;;;;1.42;0.60;;;16.10;99.90;;;;;;5027821;28;20029;-71
2022/07/23 00:14:33;;;;;;;1.02;0.57;;;16.10;99.90;;;;;;5029699;28;20022;-70
2022/07/23 00:16:59;;;;;;;0.65;0.32;;;16.10;99.90;;;;;;5031287;28;20415;-70
2022/07/23 00:19:24;;;;;;;4.05;0.50;;;16.00;99.90;;;;;;5031803;28;20161;-70
2022/07/23 00:21:50;;;;;;;5.25;0.80;;;16.00;99.90;;;;;;5031058;28;20030;-70
2022/07/23 00:24:15;;;;;;;1.15;0.40;;;16.00;99.90;;;;;;5031915;28;20021;-70
2022/07/23 00:26:41;;;;;;;4.03;0.65;;;16.00;99.90;;;;;;5035081;28;20125;-70
2022/07/23 00:29:06;;;;;;;1.67;0.50;;;16.00;99.90;;;;;;5031793;28;20034;-70
2022/07/23 00:31:32;;;;;;;2.28;0.60;;;16.00;99.90;;;;;;5031626;28;20450;-70
2022/07/23 00:34:00;;;;;;;2.33;0.77;;;16.00;99.90;;;;;;5030508;28;20033;-70
2022/07/23 00:36:27;;;;;;;3.10;0.40;;;16.00;99.90;;;;;;5031818;28;20056;-70
2022/07/23 00:38:53;;;;;;;2.83;0.55;;;15.90;99.90;;;;;;5030963;28;20048;-70
2022/07/23 00:41:18;;;;;;;1.00;0.55;;;15.90;99.90;;;;;;5031407;28;20029;-70
2022/07/23 00:43:44;;;;;;;0.57;0.25;;;15.80;99.90;;;;;;5030686;28;20512;-70
2022/07/23 00:46:09;;;;;;;1.30;0.50;;;15.80;99.90;;;;;;5029629;28;20079;-70
2022/07/23 00:48:35;;;;;;;1.45;0.40;;;15.80;99.90;;;;;;5031394;28;20120;-70
2022/07/23 00:51:01;;;;;;;4.25;0.63;;;15.80;99.90;;;;;;5031851;28;20497;-70
2022/07/23 00:53:27;;;;;;;4.28;0.50;;;15.70;99.90;;;;;;5031963;28;20026;-70
2022/07/23 00:55:53;;;;;;;1.10;0.40;;;15.70;99.90;;;;;;5028845;28;20041;-69
2022/07/23 00:58:19;;;;;;;2.25;0.40;;;15.70;99.90;;;;;;5031275;28;20037;-70
2022/07/23 01:00:45;;;;;;;2.00;0.88;;;15.70;99.90;;;;;;5030710;28;20025;-70
2022/07/23 01:03:11;;;;;;;3.13;0.70;;;15.60;99.90;;;;;;5030505;28;20506;-70
2022/07/23 01:05:36;;;;;;;4.18;1.27;;;15.60;99.90;;;;;;5031369;28;20490;-70
2022/07/23 01:08:02;;;;;;;3.53;0.57;;;15.60;99.90;;;;;;5030014;28;20041;-70
2022/07/23 01:10:30;;;;;;;3.10;0.63;;;15.60;99.90;;;;;;5031141;28;20056;-70
2022/07/23 01:12:57;;;;;;;3.10;0.45;;;15.50;99.90;;;;;;5029880;28;20116;-71
2022/07/23 01:15:22;;;;;;;1.73;0.75;;;15.50;99.90;;;;;;5031037;28;20026;-70
2022/07/23 01:17:48;;;;;;;2.22;0.63;;;15.50;99.90;;;;;;5030523;28;20375;-70
2022/07/23 01:20:14;;;;;;;2.05;0.68;;;15.50;99.90;;;;;;5030329;28;20089;-71
2022/07/23 01:22:39;;;;;;;1.40;0.85;;;15.40;99.90;;;;;;5029980;28;20025;-70
2022/07/23 01:25:05;;;;;;;1.98;0.50;;;15.40;99.90;;;;;;5032973;28;20547;-70
2022/07/23 01:27:31;;;;;;;3.72;0.70;;;15.40;99.90;;;;;;5030343;28;20034;-70
2022/07/23 01:29:59;;;;;;;1.88;0.68;;;15.40;99.90;;;;;;5029530;28;20044;-71
2022/07/23 01:32:24;;;;;;;4.57;0.82;;;15.40;99.90;;;;;;5030587;28;20033;-70
2022/07/23 01:34:50;;;;;;;2.67;0.68;;;15.40;99.90;;;;;;5029970;28;20040;-69
2022/07/23 01:37:16;;;;;;;8.27;1.05;;;15.30;99.90;;;;;;5030781;28;20116;-70
2022/07/23 01:39:41;;;;;;;2.78;0.70;;;15.30;99.90;;;;;;5029771;28;20444;-70
2022/07/23 01:42:07;;;;;;;2.30;0.70;;;15.20;99.90;;;;;;5030210;28;20026;-70
2022/07/23 01:44:32;;;;;;;1.30;0.47;;;15.30;99.90;;;;;;5030168;28;20033;-70
2022/07/23 01:46:58;;;;;;;1.30;0.50;;;15.20;99.90;;;;;;5029682;28;20030;-69
2022/07/23 01:49:23;;;;;;;2.30;0.70;;;15.20;99.90;;;;;;5029713;28;20026;-70
2022/07/23 01:52:01;;;;;;;3.72;1.02;;;15.10;99.90;;;;;;5031406;28;20124;-70
2022/07/23 01:54:32;;;;;;;2.58;1.15;;;15.10;99.90;;;;;;5029514;28;20478;-70
2022/07/23 01:56:58;;;;;;;2.60;1.23;;;15.10;99.90;;;;;;5026275;28;20060;-70
2022/07/23 01:59:24;;;;;;;5.25;0.93;;;15.10;99.90;;;;;;5028854;28;20032;-69
2022/07/23 02:01:50;;;;;;;2.58;0.77;;;15.10;99.90;;;;;;5029546;28;20075;-69
2022/07/23 02:04:17;;;;;;;3.53;0.50;;;15.00;99.90;;;;;;5029409;28;20026;-70
2022/07/23 02:06:43;;;;;;;4.00;0.73;;;15.00;99.90;;;;;;5029724;28;20128;-70
2022/07/23 02:09:08;;;;;;;2.90;0.60;;;15.00;99.90;;;;;;5029693;28;20101;-70
2022/07/23 02:11:34;;;;;;;1.35;0.70;;;15.00;99.90;;;;;;5029954;28;20044;-70
2022/07/23 02:13:59;;;;;;;1.50;0.70;;;14.90;99.90;;;;;;5028649;28;20037;-70
2022/07/23 02:16:25;;;;;;;2.20;0.70;;;14.90;99.90;;;;;;5028245;28;20086;-70
2022/07/23 02:18:50;;;;;;;3.22;0.90;;;14.90;99.90;;;;;;5029095;28;20029;-68
2022/07/23 02:21:16;;;;;;;1.95;0.60;;;14.90;99.90;;;;;;5029674;28;20117;-71
2022/07/23 02:23:42;;;;;;;7.40;1.38;;;14.90;99.90;;;;;;5028809;28;20489;-68
2022/07/23 02:26:07;;;;;;;2.72;0.85;;;14.80;99.90;;;;;;5032096;28;20044;-70
2022/07/23 02:28:33;;;;;;;2.92;0.80;;;14.80;99.90;;;;;;5029608;28;20044;-69
2022/07/23 02:30:58;;;;;;;3.78;0.77;;;14.80;99.90;;;;;;5024411;28;20033;-70
2022/07/23 02:33:24;;;;;;;3.47;0.85;;;14.80;99.90;;;;;;5029483;28;20120;-68
2022/07/23 02:35:50;;;;;;;1.83;0.60;;;14.80;99.90;;;;;;5029171;28;20065;-69
2022/07/23 02:38:15;;;;;;;2.75;0.80;;;14.70;99.90;;;;;;5029022;28;20049;-70
2022/07/23 02:40:41;;;;;;;3.03;0.60;;;14.70;99.90;;;;;;5029217;28;20122;-67
2022/07/23 02:43:06;;;;;;;7.57;0.90;;;14.70;99.90;;;;;;5028786;28;20524;-70
2022/07/23 02:45:32;;;;;;;5.10;0.80;;;14.70;99.90;;;;;;5029225;28;20497;-71
2022/07/23 02:47:58;;;;;;;2.30;0.65;;;14.70;99.90;;;;;;5024766;28;20042;-71
2022/07/23 02:50:23;;;;;;;2.13;1.00;;;14.70;99.90;;;;;;5029168;28;20060;-70
2022/07/23 02:52:49;;;;;;;4.75;1.20;;;14.70;99.90;;;;;;5030058;28;20080;-70
2022/07/23 02:55:14;;;;;;;3.85;0.80;;;14.70;99.90;;;;;;5028636;28;20025;-71
2022/07/23 02:57:40;;;;;;;4.00;1.13;;;14.60;99.90;;;;;;5029484;28;20033;-70
2022/07/23 03:00:07;;;;;;;3.40;0.90;;;14.60;99.90;;;;;;5028008;28;20461;-70
2022/07/23 03:02:32;;;;;;;3.80;1.00;;;14.60;99.90;;;;;;5025924;28;20082;-70
2022/07/23 03:04:58;;;;;;;4.57;1.40;;;14.60;99.90;;;;;;5026011;28;20750;-70
2022/07/23 03:07:23;;;;;;;2.28;0.85;;;14.60;99.90;;;;;;5029196;28;20124;-69
2022/07/23 03:09:49;;;;;;;4.93;1.48;;;14.60;99.90;;;;;;5028111;28;20076;-70
2022/07/23 03:12:15;;;;;;;1.52;0.75;;;14.50;99.90;;;;;;5028697;28;20053;-69
2022/07/23 03:14:41;;;;;;;1.88;0.55;;;14.50;99.90;;;;;;5028742;28;20030;-69
2022/07/23 03:17:07;;;;;;;2.70;0.70;;;14.50;99.90;;;;;;5028442;28;20484;-70
2022/07/23 03:19:32;;;;;;;2.20;0.80;;;14.50;99.90;;;;;;5028731;28;20033;-69
2022/07/23 03:21:58;;;;;;;6.68;1.75;;;14.50;99.90;;;;;;5028243;28;20496;-70
2022/07/23 03:24:53;;;;;;;5.28;1.20;;;14.50;99.90;;;;;;5028510;28;20034;-70
2022/07/23 03:27:09;;;;;;;2.90;0.77;;;14.50;99.90;;;;;;5028139;28;20560;-70
2022/07/23 03:29:36;;;;;;;2.05;0.70;;;14.50;99.90;;;;;;5028694;28;20030;-70
2022/07/23 03:32:03;;;;;;;3.65;1.00;;;14.40;99.90;;;;;;5027941;28;20064;-69
2022/07/23 03:34:28;;;;;;;3.47;0.80;;;14.40;99.90;;;;;;5027987;28;20485;-70
2022/07/23 03:36:54;;;;;;;3.25;0.95;;;14.40;99.90;;;;;;5027815;28;20044;-70
2022/07/23 03:39:19;;;;;;;6.07;0.98;;;14.40;99.90;;;;;;5028624;28;20105;-70
2022/07/23 03:41:45;;;;;;;5.32;1.00;;;14.40;99.90;;;;;;5028031;28;20025;-70
2022/07/23 03:44:11;;;;;;;1.30;0.80;;;14.40;99.90;;;;;;5027952;28;20975;-70
2022/07/23 03:46:37;;;;;;;1.75;0.60;;;14.40;99.90;;;;;;5028792;28;20105;-70
2022/07/23 03:49:02;;;;;;;7.65;1.23;;;14.40;99.90;;;;;;5028761;28;20044;-70
2022/07/23 03:51:28;;;;;;;1.42;0.70;;;14.40;99.90;;;;;;5033246;28;20048;-70
2022/07/23 03:53:55;;;;;;;1.80;1.00;;;14.40;99.90;;;;;;5027750;28;20124;-70
2022/07/23 03:56:21;;;;;;;3.42;0.80;;;14.40;99.90;;;;;;5032378;28;20400;-70
2022/07/23 03:58:47;;;;;;;3.15;1.08;;;14.40;99.90;;;;;;5031976;28;20033;-70
2022/07/23 04:01:12;;;;;;;3.03;1.05;;;14.40;99.90;;;;;;5031871;28;20025;-70
2022/07/23 04:03:38;;;;;;;1.92;0.98;;;14.40;99.90;;;;;;5032170;28;20083;-69
2022/07/23 04:06:04;;;;;;;6.45;1.60;;;14.40;99.90;;;;;;5031106;28;20037;-70
2022/07/23 04:08:29;;;;;;;1.90;0.80;;;14.40;99.90;;;;;;5032202;28;20053;-69
2022/07/23 04:10:55;;;;;;;1.25;0.82;;;14.40;99.90;;;;;;5031252;28;20106;-70
2022/07/23 04:13:21;;;;;;;2.92;0.93;;;14.40;99.90;;;;;;5031982;28;20033;-70
2022/07/23 04:15:46;;;;;;;2.63;1.13;;;14.40;99.90;;;;;;5031360;28;20036;-70
2022/07/23 04:18:12;;;;;;;3.00;0.90;;;14.40;99.90;;;;;;5030496;28;20044;-70
2022/07/23 04:20:38;;;;;;;5.43;1.20;;;14.40;99.90;;;;;;5031495;28;20045;-70
2022/07/23 04:23:03;;;;;;;2.22;1.25;;;14.40;99.90;;;;;;5030825;28;20112;-70
2022/07/23 04:25:29;;;;;;;2.55;1.00;;;14.40;99.90;;;;;;5033817;28;20041;-70
2022/07/23 04:27:54;;;;;;;4.05;0.80;;;14.40;99.90;;;;;;5031302;28;20049;-70
2022/07/23 04:30:20;;;;;;;2.15;0.75;;;14.40;99.90;;;;;;5031603;28;20477;-70
2022/07/23 04:32:46;;;;;;;5.78;1.27;;;14.40;99.90;;;;;;5031234;28;20502;-70
2022/07/23 04:35:11;;;;;;;2.60;0.70;;;14.40;99.90;;;;;;5030929;28;20618;-69
2022/07/23 04:37:37;;;;;;;2.03;0.65;;;14.40;99.90;;;;;;5031715;28;20080;-69
2022/07/23 04:40:03;;;;;;;3.78;0.80;;;14.50;99.90;;;;;;5030994;28;21172;-70
2022/07/23 04:42:28;;;;;;;1.77;0.50;;;14.50;99.90;;;;;;5031047;28;20417;-70
2022/07/23 04:44:54;;;;;;;4.05;0.63;;;14.50;99.90;;;;;;5038124;28;20091;-70
2022/07/23 04:47:19;;;;;;;1.88;0.90;;;14.50;99.90;;;;;;5034438;28;20033;-70
2022/07/23 04:49:45;;;;;;;4.95;1.00;;;14.50;99.90;;;;;;5031623;28;20038;-70
2022/07/23 04:52:10;;;;;;;1.25;0.60;;;14.50;99.90;;;;;;5034453;28;20606;-74
2022/07/23 04:54:36;;;;;;;2.05;0.77;;;14.50;99.90;;;;;;5031355;28;20460;-73
2022/07/23 04:57:02;;;;;;;5.65;1.15;;;14.60;99.90;;;;;;5029046;28;20034;-72
2022/07/23 04:59:27;;;;;;;1.10;0.60;;;14.60;99.90;;;;;;5031368;28;20040;-73
2022/07/23 05:01:53;;;;;;;5.38;1.30;;;14.60;99.90;;;;;;5031995;28;20501;-73
2022/07/23 05:04:18;;;;;;;2.83;1.00;;;14.60;99.90;;;;;;5031185;28;20044;-73
2022/07/23 05:06:44;;;;;;;1.65;0.90;;;14.60;99.90;;;;;;5031390;28;20163;-73
2022/07/23 05:09:09;;;;;;;0.95;0.68;;;14.60;99.90;;;;;;5030327;28;20508;-73
2022/07/23 05:11:35;;;;;;;1.00;0.60;;;14.70;99.90;;;;;;5030927;28;20041;-73
2022/07/23 05:14:00;;;;;;;2.33;0.55;;;14.80;99.90;;;;;;5030243;28;20029;-73
2022/07/23 05:16:26;;;;;;;2.15;1.15;;;14.90;99.90;;;;;;5030685;28;20034;-73
2022/07/23 05:18:51;;;;;;;4.45;0.75;;;14.90;99.90;;;;;;5031405;28;20029;-73
2022/07/23 05:21:17;;;;;;;2.83;0.70;;;14.90;99.90;;;;;;5030706;28;20045;-73
2022/07/23 05:23:42;;;;;;;3.80;0.70;;;14.90;99.90;;;;;;5030897;28;20723;-73
2022/07/23 05:26:08;;;;;;;3.25;0.70;;;15.00;99.90;;;;;;5030791;28;20026;-73
2022/07/23 05:28:33;;;;;;;2.55;1.13;;;15.10;99.90;;;;;;5031034;28;20025;-73
2022/07/23 05:30:59;;;;;;;1.00;0.50;;;15.10;99.90;;;;;;5029206;28;20099;-73
2022/07/23 05:33:25;;;;;;;2.83;0.60;;;15.20;99.90;;;;;;5030709;28;20120;-73
2022/07/23 05:35:50;;;;;;;3.42;0.55;;;15.30;99.90;;;;;;5029064;28;20036;-73
2022/07/23 05:38:16;;;;;;;2.85;0.82;;;15.30;99.90;;;;;;5030295;28;20049;-73
2022/07/23 05:40:42;;;;;;;2.97;0.70;;;15.40;99.90;;;;;;5030584;28;20189;-72
2022/07/23 05:43:07;;;;;;;4.00;0.52;;;15.50;99.90;;;;;;5029507;28;20045;-73
2022/07/23 05:45:33;;;;;;;4.00;0.85;;;15.50;99.90;;;;;;5030541;28;20025;-73
2022/07/23 05:47:58;;;;;;;2.95;0.80;;;15.60;99.90;;;;;;5029573;28;20037;-73
2022/07/23 05:50:24;;;;;;;0.80;0.40;;;15.70;99.90;;;;;;5030343;28;20025;-73
2022/07/23 05:52:50;;;;;;;2.55;0.55;;;15.70;99.90;;;;;;5030811;28;20112;-73
2022/07/23 05:55:15;;;;;;;2.90;0.60;;;15.90;99.90;;;;;;5030350;28;20041;-72
2022/07/23 05:57:41;;;;;;;0.85;0.47;;;16.10;99.90;;;;;;5030524;28;20044;-73
2022/07/23 06:00:09;;;;;;;1.95;0.60;;;16.20;99.90;;;;;;5029315;28;20545;-73
2022/07/23 06:02:34;;;;;;;0.65;0.25;;;16.40;99.90;;;;;;5029881;28;20049;-73
2022/07/23 06:05:00;;;;;;;1.52;0.45;;;16.50;99.90;;;;;;5029099;28;20092;-72
2022/07/23 06:07:26;;;;;;;2.08;0.52;;;16.70;99.90;;;;;;5030015;28;20048;-73
2022/07/23 06:09:51;;;;;;;2.30;0.50;;;17.00;99.90;;;;;;5028899;28;20026;-74
2022/07/23 06:12:17;;;;;;;1.00;0.40;;;17.30;99.90;;;;;;5029184;28;20108;-73
2022/07/23 06:14:43;;;;;;;0.73;0.38;;;17.50;99.90;;;;;;5029511;28;20117;-74
2022/07/23 06:17:09;;;;;;;2.92;0.35;;;17.70;99.90;;;;;;5028525;28;20393;-73
2022/07/23 06:19:34;;;;;;;2.97;0.60;;;17.80;99.90;;;;;;5027944;28;20038;-74
2022/07/23 06:22:00;;;;;;;3.90;0.93;;;17.90;99.90;;;;;;5028219;28;20033;-73
2022/07/23 06:24:25;;;;;;;1.58;0.45;;;17.90;99.90;;;;;;5029488;28;20121;-74
2022/07/23 06:26:51;;;;;;;1.02;0.45;;;18.00;99.90;;;;;;5029681;28;20482;-73
2022/07/23 06:29:16;;;;;;;2.63;0.40;;;18.10;99.90;;;;;;5029606;28;20107;-73
2022/07/23 06:31:42;;;;;;;1.10;0.30;;;18.10;99.90;;;;;;5029224;28;20034;-73
2022/07/23 06:34:08;;;;;;;0.77;0.30;;;18.30;99.90;;;;;;5028683;28;20033;-73
2022/07/23 06:36:33;;;;;;;2.22;0.50;;;18.40;99.90;;;;;;5029828;28;20033;-73
2022/07/23 06:38:59;;;;;;;1.60;0.25;;;18.60;99.90;;;;;;5029702;28;20029;-74
2022/07/23 06:41:24;;;;;;;0.70;0.10;;;18.80;99.90;;;;;;5030177;28;20103;-73
2022/07/23 06:43:50;;;;;;;0.98;0.40;;;19.10;99.90;;;;;;5028517;28;20485;-73
2022/07/23 06:46:16;;;;;;;3.05;0.30;;;19.30;99.90;;;;;;5028055;28;20126;-74
2022/07/23 06:48:41;;;;;;;1.35;0.20;;;19.50;99.90;;;;;;5028725;28;20052;-73
2022/07/23 06:51:07;;;;;;;1.15;0.28;;;19.60;99.90;;;;;;5026900;28;20065;-74
2022/07/23 06:53:32;;;;;;;1.23;0.40;;;19.80;99.90;;;;;;5028266;28;20041;-74
2022/07/23 06:55:58;;;;;;;2.63;0.15;;;20.30;99.90;;;;;;5025491;28;20043;-74
2022/07/23 06:58:24;;;;;;;2.33;0.30;;;20.50;99.90;;;;;;5027875;28;20026;-73
2022/07/23 07:00:49;;;;;;;3.95;0.30;;;20.50;99.90;;;;;;5027971;28;20033;-74
2022/07/23 07:03:17;;;;;;;0.73;0.25;;;20.70;99.90;;;;;;5027780;28;20524;-74
2022/07/23 07:05:42;;;;;;;2.05;0.30;;;21.20;99.90;;;;;;5024693;28;20041;-73
2022/07/23 07:08:08;;;;;;;1.65;0.35;;;21.60;99.90;;;;;;5027707;28;20124;-74
2022/07/23 07:10:33;;;;;;;2.80;0.28;;;21.90;99.90;;;;;;5028595;28;20120;-74
2022/07/23 07:12:59;;;;;;;1.75;0.20;;;22.00;99.90;;;;;;5027747;28;20041;-73
2022/07/23 07:15:24;;;;;;;1.70;0.40;;;22.20;99.90;;;;;;5028866;28;20037;-73
2022/07/23 07:17:50;;;;;;;0.73;0.30;;;22.20;99.90;;;;;;5028388;28;20045;-74
2022/07/23 07:20:16;;;;;;;0.95;0.20;;;22.40;99.90;;;;;;5028300;28;20566;-74
2022/07/23 07:22:41;;;;;;;2.80;0.40;;;22.80;99.90;;;;;;5020525;28;20037;-72
2022/07/23 07:25:07;;;;;;;2.28;0.65;;;23.00;99.90;;;;;;5026682;28;20048;-73
2022/07/23 07:27:33;;;;;;;1.08;0.40;;;23.10;99.90;;;;;;5031318;28;20429;-74
2022/07/23 07:29:58;;;;;;;1.42;0.30;;;23.30;98.90;;;;;;5030113;28;20087;-75
2022/07/23 07:32:25;;;;;;;3.15;0.60;;;23.40;98.40;;;;;;5031773;28;20072;-71
2022/07/23 07:34:50;;;;;;;3.13;0.60;;;23.70;98.10;;;;;;5031104;28;20030;-73
2022/07/23 07:37:16;;;;;;;0.43;0.10;;;24.20;97.40;;;;;;5030960;28;20033;-74
2022/07/23 07:39:41;;;;;;;0.80;0.38;;;24.50;96.50;;;;;;5028112;28;20485;-73
2022/07/23 07:42:07;;;;;;;1.80;0.60;;;25.10;95.10;;;;;;5028002;28;20132;-74
2022/07/23 07:44:32;;;;;;;3.65;0.55;;;25.60;95.40;;;;;;5028634;28;20508;-74
2022/07/23 07:46:58;;;;;;;1.77;0.30;;;26.20;95.00;;;;;;5028420;28;20125;-74
2022/07/23 07:49:24;;;;;;;2.42;0.57;;;26.90;93.60;;;;;;5028654;28;20033;-73
2022/07/23 07:51:49;;;;;;;1.50;0.40;;;27.10;93.10;;;;;;5028448;28;20037;-74
2022/07/23 07:54:15;;;;;;;1.60;0.22;;;27.40;91.90;;;;;;5027948;28;20036;-74
2022/07/23 07:56:40;;;;;;;2.70;0.57;;;27.50;91.40;;;;;;5028976;28;20040;-74
2022/07/23 07:59:06;;;;;;;2.50;0.40;;;27.60;90.80;;;;;;5028412;28;20026;-75
2022/07/23 08:01:32;;;;;;;4.13;0.28;;;27.60;87.90;;;;;;5028587;28;20121;-74
2022/07/23 08:03:58;;;;;;;1.10;0.45;;;27.20;89.30;;;;;;5027558;28;20042;-75
2022/07/23 08:06:23;;;;;;;2.10;0.40;;;26.70;89.20;;;;;;5027893;28;20041;-74
2022/07/23 08:08:49;;;;;;;2.45;0.45;;;26.10;90.40;;;;;;5028747;28;20033;-74
2022/07/23 08:11:15;;;;;;;2.20;0.32;;;25.70;90.00;;;;;;5025516;28;20038;-75
2022/07/23 08:13:40;;;;;;;1.23;0.20;;;25.10;90.10;;;;;;5028142;28;20037;-74
2022/07/23 08:16:06;;;;;;;2.38;0.65;;;24.60;91.00;;;;;;5026427;28;20037;-73
2022/07/23 08:18:32;;;;;;;0.93;0.20;;;24.20;90.90;;;;;;5028406;28;20038;-75
2022/07/23 08:20:57;;;;;;;1.17;0.22;;;23.90;91.50;;;;;;5025895;28;20390;-74
2022/07/23 08:23:23;;;;;;;0.90;0.20;;;23.90;92.40;;;;;;5028110;28;20060;-74
2022/07/23 08:25:48;;;;;;;0.90;0.30;;;23.60;92.80;;;;;;5027144;28;20069;-74
2022/07/23 08:28:15;;;;;;;0.57;0.10;;;23.40;93.30;;;;;;5027441;28;20094;-74
2022/07/23 08:30:44;;;;;;;0.95;0.20;;;23.20;93.50;;;;;;5028014;28;20421;-74
2022/07/23 08:33:17;;;;;;;4.30;0.75;;;23.00;93.70;;;;;;5027471;28;20056;-74
2022/07/23 08:35:50;;;;;;;0.35;0.13;;;22.90;94.40;;;;;;5027476;28;20041;-74
2022/07/23 08:38:18;;;;;;;1.25;0.60;;;22.80;94.10;;;;;;5027103;28;20025;-74
2022/07/23 08:40:46;;;;;;;1.42;0.20;;;22.80;94.00;;;;;;5027951;28;20165;-74
2022/07/23 08:43:14;;;;;;;1.70;0.38;;;22.80;94.50;;;;;;5026693;28;20064;-73
2022/07/23 08:45:42;;;;;;;0.73;0.20;;;22.60;94.40;;;;;;5028165;28;20409;-73
2022/07/23 08:48:11;;;;;;;3.03;0.70;;;22.60;95.40;;;;;;5024931;28;20044;-73
2022/07/23 08:50:37;;;;;;;3.70;0.63;;;22.60;94.50;;;;;;5026820;28;20038;-74
2022/07/23 08:53:06;;;;;;;0.28;0.20;;;22.60;94.70;;;;;;5025126;28;20041;-74
2022/07/23 08:55:32;;;;;;;2.40;0.30;;;22.40;94.60;;;;;;5026513;28;20071;-74
2022/07/23 08:57:57;;;;;;;1.55;0.32;;;22.40;94.90;;;;;;5026229;28;20053;-74
2022/07/23 09:00:23;;;;;;;0.85;0.20;;;22.50;95.10;;;;;;5028455;28;20033;-73
2022/07/23 09:02:50;;;;;;;0.88;0.40;;;22.60;94.10;;;;;;5022854;28;20030;-74
2022/07/23 09:05:18;;;;;;;1.80;0.40;;;22.80;94.40;;;;;;5027782;28;20033;-73
2022/07/23 09:08:05;;;;;;;1.83;0.25;;;22.80;94.30;;;;;;5028141;28;20033;-73
2022/07/23 09:10:42;;;;;;;0.75;0.20;;;22.80;95.30;;;;;;5024715;28;20838;-74
2022/07/23 09:13:28;;;;;;;1.70;0.32;;;23.00;95.60;;;;;;5025216;28;20052;-74
2022/07/23 09:15:55;;;;;;;1.27;0.35;;;23.00;94.30;;;;;;5026658;28;20417;-74
2022/07/23 09:18:32;;;;;;;7.45;0.52;;;23.20;95.10;;;;;;5025365;28;20034;-74
2022/07/23 09:21:16;;;;;;;0.63;0.28;;;23.20;94.10;;;;;;5026263;28;20401;-74
2022/07/23 09:23:48;;;;;;;1.80;0.20;;;23.10;94.30;;;;;;5025192;28;20037;-74
2022/07/23 09:26:20;;;;;;;1.67;0.38;;;23.10;95.30;;;;;;5026950;28;20060;-74
2022/07/23 09:28:54;;;;;;;0.65;0.20;;;23.20;95.10;;;;;;5026209;28;20504;-73
2022/07/23 09:31:20;;;;;;;0.32;0.15;;;23.20;94.40;;;;;;5026299;28;20087;-73
2022/07/23 09:33:46;;;;;;;1.40;0.30;;;23.40;93.20;;;;;;5025405;28;20493;-74
2022/07/23 09:36:13;;;;;;;1.77;0.45;;;23.30;93.00;;;;;;5026454;28;20044;-74
2022/07/23 09:38:49;;;;;;;1.70;0.25;;;23.30;92.50;;;;;;5026709;28;20041;-74
2022/07/23 09:41:14;;;;;;;1.95;0.30;;;23.40;92.00;;;;;;5025815;28;20029;-74
2022/07/23 09:43:40;;;;;;;1.17;0.30;;;23.30;92.70;;;;;;5025954;28;20033;-73
2022/07/23 09:46:29;;;;;;;0.35;0.10;;;23.40;93.90;;;;;;5025584;28;20428;-74
2022/07/23 09:48:58;;;;;;;2.17;0.20;;;23.50;93.80;;;;;;5025382;28;20045;-75
2022/07/23 09:53:53;;;;;;;1.25;0.20;;;23.50;93.60;;;;;;5027457;28;20067;-74
2022/07/23 09:56:21;;;;;;;2.20;0.55;;;23.50;94.50;;;;;;5028430;28;20485;-73
2022/07/23 09:58:50;;;;;;;1.20;0.10;;;23.60;93.80;;;;;;5028208;28;20072;-73
2022/07/23 10:01:16;;;;;;;2.13;0.20;;;23.60;94.00;;;;;;5027989;28;20040;-74
2022/07/23 10:03:42;;;;;;;1.92;0.20;;;23.60;93.30;;;;;;5025381;28;20029;-73
2022/07/23 10:06:13;;;;;;;0.90;0.30;;;23.70;94.10;;;;;;5028645;28;20037;-73
2022/07/23 10:08:42;;;;;;;0.60;0.22;;;23.80;94.40;;;;;;5029787;28;20037;-74
2022/07/23 10:11:09;;;;;;;3.13;0.30;;;23.80;93.90;;;;;;5028363;28;20046;-74
2022/07/23 10:13:52;;;;;;;0.40;0.30;;;23.90;93.50;;;;;;5028043;28;20079;-74
2022/07/23 10:16:19;;;;;;;1.10;0.20;;;24.00;93.60;;;;;;5026963;28;20116;-74
2022/07/23 10:18:46;;;;;;;1.65;0.52;;;24.00;93.20;;;;;;5029597;28;20064;-74
2022/07/23 10:21:37;;;;;;;2.00;0.20;;;24.00;93.30;;;;;;5028283;28;20045;-74
2022/07/23 10:24:41;;;;;;;1.17;0.20;;;24.00;93.90;;;;;;5024386;28;20056;-73
2022/07/23 10:27:12;;;;;;;1.55;0.30;;;24.10;93.60;;;;;;4986606;28;20050;-74
2022/07/23 10:30:07;;;;;;;2.28;0.38;;;24.20;93.00;;;;;;4987554;28;20042;-74
2022/07/23 10:33:10;;;;;;;3.00;0.50;;;24.20;93.20;;;;;;5011243;28;20034;-73
2022/07/23 10:35:57;;;;;;;3.80;0.50;;;24.40;92.60;;;;;;5025196;28;20493;-75
2022/07/23 10:38:34;;;;;;;3.80;0.20;;;24.50;92.80;;;;;;5026905;28;20022;-73
2022/07/23 10:41:02;;;;;;;5.97;0.55;;;24.50;93.20;;;;;;5028242;28;20079;-73
2022/07/23 10:43:30;;;;;;;0.40;0.20;;;24.50;92.80;;;;;;5027429;28;20394;-73
2022/07/23 10:46:16;;;;;;;1.52;0.50;;;24.60;93.10;;;;;;5031216;28;20033;-72
2022/07/23 10:48:42;;;;;;;1.80;0.45;;;24.60;91.90;;;;;;5029890;28;20478;-74
2022/07/23 10:51:13;;;;;;;3.58;0.50;;;24.60;91.90;;;;;;5027705;28;20037;-74
2022/07/23 10:53:51;;;;;;;0.82;0.40;;;24.80;91.70;;;;;;5029803;28;20021;-74
2022/07/23 10:56:55;;;;;;;2.17;0.40;;;24.70;91.80;;;;;;5028402;28;20705;-74
2022/07/23 10:59:22;;;;;;;3.15;0.25;;;24.80;92.40;;;;;;5010890;28;20547;-74
2022/07/23 11:01:48;;;;;;;2.53;0.40;;;24.90;92.40;;;;;;5029348;28;20132;-75
2022/07/23 11:04:14;;;;;;;1.90;0.50;;;24.90;91.70;;;;;;5026098;28;20434;-75
2022/07/23 11:06:48;;;;;;;1.13;0.22;;;24.90;91.90;;;;;;5028675;28;20032;-74
2022/07/23 11:09:37;;;;;;;0.77;0.28;;;24.90;91.40;;;;;;5027141;28;20039;-75
2022/07/23 11:12:24;;;;;;;0.93;0.40;;;24.80;91.80;;;;;;5025228;28;20409;-72
2022/07/23 11:15:02;;;;;;;3.85;0.30;;;24.80;91.20;;;;;;5028519;28;20037;-73
2022/07/23 11:17:29;;;;;;;1.05;0.38;;;24.80;91.20;;;;;;5027104;28;20041;-73
2022/07/23 11:20:09;;;;;;;5.45;0.85;;;24.80;91.20;;;;;;5025740;28;20562;-74
2022/07/23 11:22:40;;;;;;;0.57;0.22;;;24.80;91.20;;;;;;5022379;28;20033;-73
2022/07/23 11:25:06;;;;;;;;;;;25.00;92.00;;;;;;5027503;28;20037;-72
2022/07/23 11:27:45;;;;;;;1.15;0.30;;;25.10;92.30;;;;;;5026455;28;20432;-74
2022/07/23 11:30:31;;;;;;;3.88;0.30;;;25.20;92.10;;;;;;5023237;28;20091;-75
2022/07/23 11:33:08;;;;;;;4.10;0.75;;;25.30;91.50;;;;;;5023366;28;20083;-74
2022/07/23 11:35:36;;;;;;;1.45;0.55;;;25.10;90.90;;;;;;5029607;28;20557;-74
2022/07/23 11:38:15;;;;;;;2.75;0.40;;;25.20;91.30;;;;;;5025656;28;20037;-75
2022/07/23 11:40:44;;;;;;;1.95;0.50;;;25.10;91.00;;;;;;5025904;28;20444;-74
2022/07/23 11:43:11;;;;;;;2.03;0.90;;;25.00;91.20;;;;;;5024795;28;20030;-75
2022/07/23 11:45:39;;;;;;;2.25;0.50;;;25.10;91.30;;;;;;5025897;28;20500;-75
2022/07/23 11:48:07;;;;;;;1.05;0.30;;;25.00;91.70;;;;;;5024860;28;20092;-74
2022/07/23 11:50:33;;;;;;;1.10;0.30;;;25.00;91.40;;;;;;5025730;28;20041;-75
2022/07/23 11:52:59;;;;;;;1.17;0.30;;;25.00;91.70;;;;;;5027804;28;20120;-75
2022/07/23 11:55:24;;;;;;;1.33;0.30;;;25.00;91.30;;;;;;5025695;28;20498;-73
2022/07/23 11:57:52;;;;;;;0.55;0.40;;;25.00;91.70;;;;;;5026192;28;20056;-74
2022/07/23 12:00:21;;;;;;;1.35;0.45;;;25.10;91.40;;;;;;5025129;28;20033;-75
2022/07/23 12:02:53;;;;;;;0.38;0.25;;;25.10;91.50;;;;;;5024948;28;20033;-74
2022/07/23 12:05:21;;;;;;;0.85;0.40;;;25.10;91.10;;;;;;5025094;28;20033;-75
2022/07/23 12:07:52;;;;;;;0.57;0.45;;;25.20;91.00;;;;;;5026061;28;20113;-74
2022/07/23 12:10:23;;;;;;;3.03;0.40;;;25.20;91.20;;;;;;5025343;28;20576;-75
2022/07/23 12:12:55;;;;;;;3.05;0.60;;;25.20;90.40;;;;;;5028442;28;20045;-74
2022/07/23 12:15:31;;;;;;;3.00;0.85;;;25.00;89.80;;;;;;5028515;28;20041;-74
2022/07/23 12:17:58;;;;;;;1.65;0.52;;;24.90;91.10;;;;;;5025162;28;20065;-75
2022/07/23 12:20:27;;;;;;;0.60;0.30;;;24.90;92.10;;;;;;5028987;28;20469;-74
2022/07/23 12:22:59;;;;;;;1.48;0.28;;;24.80;91.20;;;;;;5028313;28;20049;-75
2022/07/23 12:25:27;;;;;;;2.17;0.63;;;24.90;91.70;;;;;;5031423;28;20537;-74
2022/07/23 12:28:05;;;;;;;1.17;0.47;;;24.90;91.50;;;;;;5028874;28;20064;-75
2022/07/23 12:30:37;;;;;;;1.25;0.38;;;24.80;91.20;;;;;;5025219;28;20560;-74
2022/07/23 12:33:04;;;;;;;3.85;0.70;;;24.80;91.80;;;;;;5025365;28;20042;-75
2022/07/23 12:35:33;;;;;;;1.23;0.35;;;24.90;91.00;;;;;;5029222;28;20033;-75
2022/07/23 12:38:02;;;;;;;0.68;0.43;;;24.90;90.90;;;;;;5027980;28;20078;-74
2022/07/23 12:40:33;;;;;;;1.00;0.30;;;24.90;91.00;;;;;;5028940;28;20056;-75
2022/07/23 12:43:20;;;;;;;1.20;0.60;;;24.90;91.00;;;;;;5027362;28;20037;-75
2022/07/23 12:45:51;;;;;;;2.42;0.70;;;24.80;90.90;;;;;;5029015;28;20025;-74
2022/07/23 12:48:17;;;;;;;2.75;0.57;;;24.90;91.60;;;;;;5027771;28;20037;-75
2022/07/23 12:50:48;;;;;;;0.98;0.60;;;24.90;90.20;;;;;;5028770;28;20111;-74
2022/07/23 12:53:21;;;;;;;0.77;0.40;;;24.90;90.80;;;;;;5029228;28;20049;-75
2022/07/23 12:55:48;;;;;;;2.50;0.50;;;24.90;90.60;;;;;;5027497;28;20033;-75